Time;durP1;ratioP1;P1;durP2;ratioP2;P2;SDS_P1;SDS_P2;PMS_P1;PMS_P2;Temp;Humidity;BMP_temperature;BMP_pressure;BME280_temperature;BME280_humidity;BME280_pressure;Samples;Min_cycle;Max_cycle;Signal;HPM_P1;HPM_P2
2022/05/16 00:21:32;;;;;;;;;10.00;10.00;;;;;21.28;61.11;100935.84;6343605;22;45495;-81
2022/05/16 00:23:57;;;;;;;;;10.25;9.75;;;;;21.30;61.09;100931.28;6311498;22;45429;-81
2022/05/16 00:26:23;;;;;;;;;8.67;7.67;;;;;21.25;61.49;100917.25;6339678;22;45627;-81
2022/05/16 00:28:49;;;;;;;;;9.00;9.00;;;;;21.24;61.39;100906.59;6340039;22;45398;-80
2022/05/16 00:31:14;;;;;;;;;11.00;10.75;;;;;21.21;61.59;100923.66;6338429;22;45499;-81
2022/05/16 00:33:41;;;;;;;;;7.50;7.50;;;;;21.16;61.67;100917.63;6339717;22;45822;-82
2022/05/16 00:36:07;;;;;;;;;10.00;9.00;;;;;21.14;61.81;100906.13;6313514;22;45172;-80
2022/05/16 00:38:32;;;;;;;;;9.00;8.25;;;;;21.12;62.01;100908.03;6313485;22;45312;-81
2022/05/16 00:41:00;;;;;;;;;7.50;6.75;;;;;21.09;61.86;100919.75;6339528;22;47567;-80
2022/05/16 00:43:46;;;;;;;;;5.50;4.25;;;;;21.04;61.58;100918.22;6314211;22;45403;-81
2022/05/16 00:46:14;;;;;;;;;6.50;5.75;;;;;21.03;61.63;100919.13;6342473;22;45388;-80
2022/05/16 00:48:40;;;;;;;;;5.00;5.00;;;;;21.01;61.50;100910.28;6313802;22;45259;-80
2022/05/16 00:51:10;;;;;;;;;4.33;3.33;;;;;21.01;61.14;100916.53;6340370;22;46023;-81
2022/05/16 00:53:36;;;;;;;;;3.67;3.33;;;;;21.00;61.05;100904.06;6343861;22;45372;-81
2022/05/16 00:56:02;;;;;;;;;4.25;4.25;;;;;21.01;60.70;100899.56;6346262;22;45371;-80
2022/05/16 00:58:28;;;;;;;;;3.00;3.00;;;;;21.00;60.50;100900.53;6345525;22;45490;-80
2022/05/16 01:00:53;;;;;;;;;4.67;3.67;;;;;20.98;60.62;100889.00;6345295;22;46271;-81
2022/05/16 01:06:07;;;;;;;;;4.00;4.00;;;;;20.95;60.33;100870.41;6341629;22;45196;-80
2022/05/16 01:08:37;;;;;;;;;3.00;3.00;;;;;20.92;60.38;100883.00;6341543;22;45434;-81
2022/05/16 01:11:07;;;;;;;;;5.33;4.00;;;;;20.90;60.16;100876.88;6312799;22;47149;-81
2022/05/16 01:13:33;;;;;;;;;5.00;3.00;;;;;20.92;60.39;100884.81;6313322;22;45704;-80
2022/05/16 01:16:01;;;;;;;;;3.67;2.67;;;;;20.88;60.19;100881.41;6339740;22;45330;-81
2022/05/16 01:18:27;;;;;;;;;4.00;3.25;;;;;20.91;59.73;100891.97;6313043;22;45549;-80
2022/05/16 01:21:19;;;;;;;;;4.00;4.00;;;;;20.89;59.74;100888.47;6340732;22;45412;-80
2022/05/16 01:24:23;;;;;;;;;6.33;3.67;;;;;20.85;59.77;100886.00;6341060;22;45151;-80
2022/05/16 01:26:49;;;;;;;;;3.67;3.00;;;;;20.82;59.81;100903.09;6312826;22;45154;-81
2022/05/16 01:29:14;;;;;;;;;3.00;3.00;;;;;20.79;59.55;100905.88;6341585;22;45113;-80
2022/05/16 01:31:42;;;;;;;;;5.25;4.50;;;;;20.78;59.11;100904.16;6341607;22;45228;-81
2022/05/16 01:34:08;;;;;;;;;4.67;4.00;;;;;20.77;59.65;100891.72;6341143;22;45407;-81
2022/05/16 01:36:33;;;;;;;;;3.50;3.50;;;;;20.76;59.72;100897.13;6341716;22;45328;-80
2022/05/16 01:38:59;;;;;;;;;5.50;4.00;;;;;20.75;59.48;100901.63;6313480;22;45400;-81
2022/05/16 01:41:26;;;;;;;;;6.00;5.00;;;;;20.73;59.58;100919.53;6340889;22;45622;-81
2022/05/16 01:43:55;;;;;;;;;3.00;3.00;;;;;20.73;59.49;100922.22;6341432;22;45155;-81
2022/05/16 01:46:34;;;;;;;;;2.75;2.75;;;;;20.74;59.83;100918.59;6313550;22;45512;-80
2022/05/16 01:49:00;;;;;;;;;4.25;4.25;;;;;20.74;59.99;100912.38;6313096;22;45184;-80
2022/05/16 01:51:25;;;;;;;;;5.00;5.00;;;;;20.75;59.65;100900.75;6341536;22;45973;-81
2022/05/16 01:53:52;;;;;;;;;5.50;5.50;;;;;20.74;59.84;100899.00;6312967;22;45500;-80
2022/05/16 01:56:18;;;;;;;;;4.25;4.25;;;;;20.74;60.20;100904.34;6312823;22;45639;-80
2022/05/16 01:58:47;;;;;;;;;6.25;5.25;;;;;20.73;60.05;100916.84;6312910;22;45538;-81
2022/05/16 02:01:14;;;;;;;;;5.00;4.00;;;;;20.75;60.01;100922.16;6338987;22;47012;-80
2022/05/16 02:03:43;;;;;;;;;4.00;3.00;;;;;20.71;60.39;100918.72;6341239;22;45309;-81
2022/05/16 02:06:08;;;;;;;;;5.00;4.33;;;;;20.67;60.15;100923.34;6341657;22;45160;-80
2022/05/16 02:08:34;;;;;;;;;7.25;6.00;;;;;20.64;60.34;100925.28;6340098;22;45625;-80
2022/05/16 02:11:01;;;;;;;;;6.00;6.00;;;;;20.61;60.31;100923.63;6315328;22;46888;-81
2022/05/16 02:13:28;;;;;;;;;5.00;5.00;;;;;20.60;60.10;100934.38;6315109;22;45270;-80
2022/05/16 02:15:53;;;;;;;;;5.00;5.00;;;;;20.57;60.37;100931.81;6316253;22;45430;-80
2022/05/16 02:18:19;;;;;;;;;6.75;5.00;;;;;20.53;60.38;100925.72;6339958;22;45390;-81
2022/05/16 02:20:44;;;;;;;;;6.25;5.00;;;;;20.52;60.89;100923.09;6338298;22;46858;-80
2022/05/16 02:25:57;;;;;;;;;7.00;6.75;;;;;20.47;60.48;100921.50;6340343;22;45238;-80
2022/05/16 02:28:23;;;;;;;;;7.33;6.00;;;;;20.44;60.42;100932.28;6311979;22;45343;-80
2022/05/16 02:30:49;;;;;;;;;6.00;5.00;;;;;20.44;60.64;100924.28;6340394;22;45248;-80
2022/05/16 02:33:16;;;;;;;;;9.00;7.75;;;;;20.41;60.83;100937.78;6340920;22;45179;-80
2022/05/16 02:35:42;;;;;;;;;7.25;7.25;;;;;20.37;61.22;100928.16;6312132;22;45330;-80
2022/05/16 02:38:09;;;;;;;;;7.50;7.50;;;;;20.32;61.08;100930.16;6312471;22;45269;-80
2022/05/16 02:40:36;;;;;;;;;7.75;7.00;;;;;20.28;61.44;100931.19;6340147;22;45356;-80
2022/05/16 02:43:02;;;;;;;;;8.25;7.50;;;;;20.25;61.30;100932.19;6338814;22;45104;-81
2022/05/16 02:45:30;;;;;;;;;6.00;6.00;;;;;20.22;61.83;100943.00;6340498;22;45267;-80
2022/05/16 02:47:56;;;;;;;;;9.25;9.25;;;;;20.18;61.66;100949.44;6341778;22;45465;-80
2022/05/16 02:50:23;;;;;;;;;8.00;8.00;;;;;20.14;62.01;100936.25;6341999;22;46476;-80
2022/05/16 02:52:53;;;;;;;;;4.25;2.75;;;;;20.15;61.89;100954.00;6340423;22;45329;-80
2022/05/16 02:55:19;;;;;;;;;8.75;7.50;;;;;20.11;62.29;100955.94;6342350;22;45167;-80
2022/05/16 02:57:44;;;;;;;;;9.75;9.25;;;;;20.11;62.28;100955.09;6313706;22;45476;-80
2022/05/16 03:00:13;;;;;;;;;10.50;10.00;;;;;20.06;61.88;100955.25;6342143;22;45218;-80
2022/05/16 03:02:39;;;;;;;;;11.25;9.75;;;;;20.04;62.55;100959.78;6340092;22;45674;-80
2022/05/16 03:05:06;;;;;;;;;9.00;9.00;;;;;20.02;62.29;100967.00;6313315;22;45298;-80
2022/05/16 03:07:32;;;;;;;;;9.25;8.75;;;;;20.02;62.79;100961.63;6313880;22;45177;-80
2022/05/16 03:09:57;;;;;;;;;9.00;8.00;;;;;20.04;62.83;100952.63;6340151;22;46981;-80
2022/05/16 03:12:23;;;;;;;;;10.75;10.75;;;;;20.08;62.94;100957.88;6342011;22;45199;-80
2022/05/16 03:14:48;;;;;;;;;9.75;9.25;;;;;20.08;62.95;100948.06;6342520;22;45145;-80
2022/05/16 03:17:14;;;;;;;;;9.50;9.50;;;;;20.09;62.90;100957.81;6342409;22;45207;-80
2022/05/16 03:19:39;;;;;;;;;10.75;10.00;;;;;20.11;62.72;100957.75;6341719;22;45415;-80
2022/05/16 03:22:06;;;;;;;;;10.50;10.25;;;;;20.12;63.21;100964.84;6313315;22;45224;-80
2022/05/16 03:24:34;;;;;;;;;13.50;11.00;;;;;20.12;62.97;100963.03;6313840;22;45431;-80
2022/05/16 03:27:00;;;;;;;;;11.50;11.50;;;;;20.14;62.63;100966.50;6313519;22;45434;-80
2022/05/16 03:29:26;;;;;;;;;13.50;12.25;;;;;20.15;62.84;100986.97;6313380;22;48264;-81
2022/05/16 03:31:51;;;;;;;;;11.50;10.75;;;;;20.15;62.48;100984.28;6342281;22;45157;-80
2022/05/16 03:34:17;;;;;;;;;11.00;10.25;;;;;20.15;63.29;100984.28;6339964;22;45300;-80
2022/05/16 03:36:42;;;;;;;;;13.50;13.50;;;;;20.18;62.88;100983.28;6341946;22;45088;-80
2022/05/16 03:41:52;;;;;;;;;13.50;10.75;;;;;20.19;62.91;100977.91;6341724;22;45169;-80
2022/05/16 03:44:19;;;;;;;;;15.75;15.25;;;;;20.15;63.07;100970.06;6313864;22;45226;-80
2022/05/16 03:46:45;;;;;;;;;13.25;12.50;;;;;20.14;62.76;100977.22;6313724;22;45615;-80
2022/05/16 03:49:13;;;;;;;;;17.00;16.25;;;;;20.12;62.61;100987.09;6341689;22;46267;-80
2022/05/16 03:51:39;;;;;;;;;17.25;15.25;;;;;20.10;63.17;100980.06;6342053;22;45341;-80
2022/05/16 03:54:05;;;;;;;;;12.75;12.75;;;;;20.03;63.28;100987.47;6342151;22;45282;-80
2022/05/16 03:56:31;;;;;;;;;16.75;16.50;;;;;19.96;63.24;100994.81;6312994;22;45355;-80
2022/05/16 03:58:58;;;;;;;;;16.00;14.00;;;;;19.92;63.09;101005.72;6341486;22;45222;-80
2022/05/16 04:01:27;;;;;;;;;18.50;15.00;;;;;19.87;63.02;101021.06;6313451;22;45182;-80
2022/05/16 04:03:53;;;;;;;;;18.00;14.25;;;;;19.82;63.34;101024.75;6313611;22;45271;-80
2022/05/16 04:06:19;;;;;;;;;17.50;15.00;;;;;19.78;63.82;101025.81;6339821;22;45401;-80
2022/05/16 04:08:46;;;;;;;;;17.50;15.00;;;;;19.73;64.07;101035.81;6313702;22;47381;-80
2022/05/16 04:11:15;;;;;;;;;14.50;14.50;;;;;19.74;63.79;101036.66;6312492;22;45324;-80
2022/05/16 04:13:41;;;;;;;;;16.75;14.25;;;;;19.70;64.08;101033.25;6313555;22;45389;-80
2022/05/16 04:16:07;;;;;;;;;15.50;15.00;;;;;19.71;64.39;101043.00;6313334;22;45461;-80
2022/05/16 04:18:33;;;;;;;;;14.25;14.00;;;;;19.74;64.38;101045.53;6313224;22;46153;-80
2022/05/16 04:20:58;;;;;;;;;17.50;16.25;;;;;19.75;64.34;101038.41;6312958;22;45380;-81
2022/05/16 04:23:24;;;;;;;;;18.50;15.50;;;;;19.79;64.37;101040.03;6341678;22;45348;-80
2022/05/16 04:25:50;;;;;;;;;16.00;15.75;;;;;19.80;64.34;101045.31;6313058;22;45282;-80
2022/05/16 04:28:16;;;;;;;;;16.00;14.25;;;;;19.79;64.62;101054.25;6339549;22;47141;-80
2022/05/16 04:30:41;;;;;;;;;16.75;16.50;;;;;19.80;64.37;101056.00;6341790;22;45308;-80
2022/05/16 04:33:07;;;;;;;;;20.25;17.00;;;;;19.82;64.55;101061.28;6313791;22;45244;-80
2022/05/16 04:35:33;;;;;;;;;18.50;18.00;;;;;19.82;64.24;101070.19;6341686;22;45373;-81
2022/05/16 04:37:59;;;;;;;;;18.75;17.25;;;;;19.83;64.63;101071.03;6339446;22;45975;-81
2022/05/16 04:40:25;;;;;;;;;18.75;17.75;;;;;19.88;64.68;101077.09;6339388;22;45231;-80
2022/05/16 04:42:51;;;;;;;;;15.50;15.50;;;;;19.92;64.46;101097.44;6340231;22;45233;-80
2022/05/16 04:45:20;;;;;;;;;14.25;14.25;;;;;19.91;64.57;101097.50;6313281;22;45368;-81
2022/05/16 04:48:18;;;;;;;;;10.50;9.75;;;;;19.92;64.83;101101.94;6341131;22;45370;-81
2022/05/16 04:50:44;;;;;;;;;20.25;17.00;;;;;19.92;64.26;101113.47;6307155;22;45223;-80
2022/05/16 04:53:09;;;;;;;;;18.75;18.25;;;;;19.91;64.67;101126.88;6341701;22;45291;-81
2022/05/16 04:55:35;;;;;;;;;18.50;14.00;;;;;19.89;64.27;101134.06;6312921;22;45270;-80
2022/05/16 04:58:00;;;;;;;;;21.50;19.25;;;;;19.90;64.49;101143.84;6341311;22;45179;-81
2022/05/16 05:00:27;;;;;;;;;19.75;18.25;;;;;19.89;64.63;101143.00;6341137;22;45246;-81
2022/05/16 05:02:53;;;;;;;;;21.00;20.00;;;;;19.89;64.01;101144.75;6341769;22;45306;-81
2022/05/16 05:05:19;;;;;;;;;19.00;19.00;;;;;19.85;63.99;101156.50;6313011;22;45441;-81
2022/05/16 05:07:45;;;;;;;;;19.25;18.00;;;;;19.75;63.95;101159.53;6312997;22;46117;-80
2022/05/16 05:15:43;;;;;;;;;20.75;19.50;;;;;19.58;64.62;101165.41;6341122;22;45206;-80
2022/05/16 05:18:09;;;;;;;;;22.25;20.50;;;;;19.53;64.49;101154.00;6340993;22;45353;-81
2022/05/16 05:20:35;;;;;;;;;22.50;20.75;;;;;19.52;64.77;101157.59;6340739;22;45128;-80
2022/05/16 05:23:02;;;;;;;;;20.50;18.00;;;;;19.52;64.31;101164.75;6341376;22;45139;-80
2022/05/16 05:25:29;;;;;;;;;24.50;22.75;;;;;19.53;64.80;101172.69;6312014;22;45389;-82
2022/05/16 05:27:58;;;;;;;;;21.75;19.00;;;;;19.55;64.22;101164.63;6339791;22;48110;-82
2022/05/16 05:30:25;;;;;;;;;20.25;18.50;;;;;19.59;64.49;101168.94;6338893;22;45785;-82
2022/05/16 05:32:52;;;;;;;;;17.75;16.25;;;;;19.63;64.52;101175.94;6341351;22;45648;-82
2022/05/16 05:35:19;;;;;;;;;20.00;19.00;;;;;19.67;64.60;101187.41;6312799;22;45476;-82
2022/05/16 05:37:46;;;;;;;;;19.75;19.00;;;;;19.69;64.14;101186.44;6339239;22;46978;-85
2022/05/16 05:40:13;;;;;;;;;22.00;17.25;;;;;19.71;63.98;101194.41;6312637;22;45344;-83
2022/05/16 05:42:39;;;;;;;;;15.25;12.50;;;;;19.69;63.84;101197.13;6339201;22;45190;-84
2022/05/16 05:45:06;;;;;;;;;19.75;19.25;;;;;19.69;63.27;101194.44;6341171;22;45285;-85
2022/05/16 05:47:32;;;;;;;;;21.25;19.25;;;;;19.69;63.44;101197.13;6312766;22;48049;-87
2022/05/16 05:50:02;;;;;;;;;18.75;17.75;;;;;19.71;63.63;101205.97;6340802;22;45356;-85
2022/05/16 05:52:28;;;;;;;;;24.50;21.00;;;;;19.76;63.36;101211.16;6339009;22;45184;-85
2022/05/16 05:54:55;;;;;;;;;19.00;19.00;;;;;19.80;63.19;101210.97;6312710;22;45571;-85
2022/05/16 05:57:21;;;;;;;;;22.75;18.50;;;;;19.85;63.47;101215.28;6312284;22;47922;-85
2022/05/16 05:59:46;;;;;;;;;17.00;17.00;;;;;19.89;63.14;101228.50;6312583;22;45437;-86
2022/05/16 06:02:12;;;;;;;;;21.00;20.00;;;;;19.91;62.83;101229.31;6312823;22;45262;-84
2022/05/16 06:04:38;;;;;;;;;20.25;18.25;;;;;19.91;62.86;101237.31;6340954;22;45365;-82
2022/05/16 06:07:04;;;;;;;;;19.25;18.50;;;;;19.93;62.81;101246.16;6312110;22;47729;-82
2022/05/16 06:09:30;;;;;;;;;21.75;18.50;;;;;19.94;62.50;101252.38;6312782;22;45895;-83
2022/05/16 06:11:58;;;;;;;;;19.25;17.50;;;;;19.97;62.98;101261.19;6341004;22;45316;-83
2022/05/16 06:14:28;;;;;;;;;19.00;16.75;;;;;19.96;62.43;101272.78;6336809;22;45381;-82
2022/05/16 06:16:54;;;;;;;;;16.00;15.25;;;;;19.97;62.47;101279.03;6311916;22;47003;-82
2022/05/16 06:19:20;;;;;;;;;17.75;16.25;;;;;19.94;62.43;101276.44;6312673;22;45317;-82
2022/05/16 06:21:49;;;;;;;;;21.75;21.75;;;;;19.99;62.64;101288.75;6312036;22;45350;-82
2022/05/16 06:27:09;;;;;;;;;16.75;16.25;;;;;20.08;61.94;101282.19;6343015;22;45239;-80
2022/05/16 06:29:35;;;;;;;;;12.25;12.25;;;;;20.08;61.96;101279.53;6321442;22;45272;-83
2022/05/16 06:32:03;;;;;;;;;19.50;17.00;;;;;20.14;61.80;101292.66;6354504;22;45250;-82
2022/05/16 06:34:31;;;;;;;;;18.75;18.00;;;;;20.17;61.57;101284.53;6344471;22;45344;-82
2022/05/16 06:36:57;;;;;;;;;17.00;14.75;;;;;20.18;61.23;101291.66;6352278;22;46822;-82
2022/05/16 06:39:28;;;;;;;;;19.25;17.75;;;;;20.23;61.66;101291.47;6315467;22;45196;-82
2022/05/16 06:41:55;;;;;;;;;15.50;13.75;;;;;20.27;61.52;101306.50;6315286;22;45397;-82
2022/05/16 06:44:33;;;;;;;;;;;;;;;;;;;;;
2022/05/16 06:47:00;;;;;;;;;16.25;15.50;;;;;20.35;60.59;101314.25;6353477;22;75538;-83
2022/05/16 06:49:25;;;;;;;;;19.50;18.50;;;;;20.37;60.65;101320.38;6323083;22;44842;-82
2022/05/16 06:51:50;;;;;;;;;16.50;15.75;;;;;20.37;60.86;101326.63;6359318;22;45215;-81
2022/05/16 06:54:16;;;;;;;;;18.00;15.25;;;;;20.40;60.47;101337.22;6322899;22;45198;-82
2022/05/16 06:56:42;;;;;;;;;18.00;15.00;;;;;20.40;60.10;101337.22;6353133;22;46893;-82
2022/05/16 06:59:09;;;;;;;;;13.50;12.50;;;;;20.41;59.47;101346.13;6347398;22;45355;-82
2022/05/16 07:01:37;;;;;;;;;14.25;12.50;;;;;20.41;59.59;101348.78;6341188;22;45362;-83
2022/05/16 07:04:08;;;;;;;;;18.25;14.75;;;;;20.35;59.20;101349.00;6313759;22;45363;-84
2022/05/16 07:06:39;;;;;;;;;12.75;12.75;;;;;20.39;59.52;101348.81;6313601;22;47201;-84
2022/05/16 07:09:05;;;;;;;;;12.50;11.75;;;;;20.47;59.23;101351.25;6313070;22;45547;-84
2022/05/16 07:11:57;;;;;;;;;14.00;14.00;;;;;20.56;59.12;101358.13;6339494;22;45271;-85
2022/05/16 07:14:22;;;;;;;;;13.00;10.50;;;;;20.63;59.00;101367.66;6313204;22;45276;-85
2022/05/16 07:16:51;;;;;;;;;14.00;13.00;;;;;20.68;58.40;101371.03;6339612;22;46027;-84
2022/05/16 07:19:16;;;;;;;;;12.50;11.75;;;;;20.75;58.47;101374.41;6342143;22;45423;-86
2022/05/16 07:21:49;;;;;;;;;12.50;10.75;;;;;20.81;57.94;101376.84;6313600;22;45613;-86
2022/05/16 07:24:14;;;;;;;;;12.75;11.75;;;;;20.87;57.79;101385.50;6339874;22;45223;-86
2022/05/16 07:44:08;;;;;;;;;14.75;11.75;;;;;21.05;56.93;101408.06;6038009;23;45517;-85
2022/05/16 07:46:59;;;;;;;;;9.75;8.50;;;;;21.07;55.97;101413.38;6045089;23;45371;-85
2022/05/16 07:53:10;;;;;;;;;;;;;;;;;;;;;
2022/05/16 08:07:26;;;;;;;;;11.75;11.25;;;;;21.23;55.58;101425.25;6359103;22;45224;-84
2022/05/16 08:10:49;;;;;;;;;13.25;12.00;;;;;21.27;55.25;101434.91;6369566;22;45586;-85
2022/05/16 08:13:15;;;;;;;;;8.00;7.00;;;;;21.29;55.10;101430.38;6277075;22;45394;-92
2022/05/16 08:16:16;;;;;;;;;5.50;5.50;;;;;21.34;55.27;101433.75;6280746;22;45578;-85
2022/05/16 08:18:50;;;;;;;;;11.00;11.00;;;;;21.37;54.72;101440.81;6258983;22;45217;-83
2022/05/16 08:21:16;;;;;;;;;11.00;10.00;;;;;21.45;54.85;101440.56;6276798;22;45261;-83
2022/05/16 08:23:41;;;;;;;;;14.25;10.50;;;;;21.52;54.82;101436.72;6288727;22;45196;-83
2022/05/16 08:26:07;;;;;;;;;10.25;7.75;;;;;21.56;54.39;101433.84;6378376;22;46822;-85
2022/05/16 08:28:34;;;;;;;;;11.00;10.25;;;;;21.65;53.90;101442.47;6384368;22;45214;-82
2022/05/16 08:31:00;;;;;;;;;7.50;7.50;;;;;21.65;53.96;101450.50;6352370;22;44830;-83
2022/05/16 08:33:28;;;;;;;;;11.50;8.75;;;;;21.65;53.69;101451.41;6382878;22;45284;-86
2022/05/16 08:41:52;;;;;;;;;12.25;8.50;;;;;21.84;52.99;101446.19;6386281;22;45388;-84
2022/05/16 08:44:20;;;;;;;;;9.50;9.50;;;;;21.88;52.96;101442.44;6375042;22;45616;-83
2022/05/16 08:47:01;;;;;;;;;10.75;9.00;;;;;21.88;53.09;101450.47;6370862;22;47127;-85
2022/05/16 08:49:40;;;;;;;;;8.00;8.00;;;;;21.92;52.94;101451.22;6373405;22;45400;-85
2022/05/16 08:52:54;;;;;;;;;;;;;;;;;;;;;
2022/05/16 08:55:29;;;;;;;;;9.00;9.00;;;;;21.93;52.41;101461.03;6249222;22;72370;-87
2022/05/16 08:58:01;;;;;;;;;9.25;8.25;;;;;21.92;52.37;101461.94;6374412;22;46656;-87
2022/05/16 09:00:48;;;;;;;;;6.25;6.00;;;;;21.89;51.95;101472.78;6373026;22;45483;-85
2022/05/16 09:03:36;;;;;;;;;8.75;8.75;;;;;21.87;51.94;101477.38;6371105;22;45318;-89
2022/05/16 09:06:17;;;;;;;;;9.00;7.50;;;;;21.92;51.89;101486.06;6343709;22;45264;-86
2022/05/16 09:08:51;;;;;;;;;9.00;7.25;;;;;21.92;51.96;101484.28;6343848;22;48392;-87
2022/05/16 09:11:26;;;;;;;;;8.50;8.00;;;;;21.95;52.43;101486.84;6343932;22;45718;-87
2022/05/16 09:14:06;;;;;;;;;8.25;8.25;;;;;21.99;52.08;101482.22;6371113;22;45328;-85
2022/05/16 09:16:47;;;;;;;;;7.00;6.00;;;;;22.00;51.76;101484.88;6344572;22;45217;-88
2022/05/16 09:19:34;;;;;;;;;8.00;7.00;;;;;21.93;51.47;101486.03;6372398;22;45358;-88
2022/05/16 09:22:27;;;;;;;;;10.00;8.75;;;;;21.88;51.49;101505.91;6371337;22;45259;-88
2022/05/16 09:25:02;;;;;;;;;6.75;6.75;;;;;21.81;51.84;101497.22;6344787;22;45330;-88
2022/05/16 09:30:20;;;;;;;;;7.25;7.00;;;;;21.92;51.60;101500.38;6372332;22;45730;-86
2022/05/16 09:32:54;;;;;;;;;10.00;9.00;;;;;22.03;52.17;101506.19;6343898;22;45370;-85
2022/05/16 09:35:29;;;;;;;;;10.00;9.00;;;;;22.08;51.72;101506.03;6373382;22;45365;-86
2022/05/16 09:38:01;;;;;;;;;6.75;6.75;;;;;22.11;51.69;101513.06;6345015;22;45650;-89
2022/05/16 09:40:36;;;;;;;;;9.00;7.00;;;;;22.13;51.65;101521.91;6366575;22;47574;-88
2022/05/16 09:43:08;;;;;;;;;7.25;7.25;;;;;22.10;51.37;101514.84;6369162;22;45360;-88
2022/05/16 09:45:35;;;;;;;;;10.50;10.00;;;;;22.16;51.47;101517.31;6368419;22;45349;-88
2022/05/16 09:48:00;;;;;;;;;11.00;9.50;;;;;22.28;51.65;101518.66;6341441;22;45628;-88
2022/05/16 09:50:32;;;;;;;;;11.00;8.00;;;;;22.29;50.99;101522.19;6342979;22;46882;-89
2022/05/16 09:53:09;;;;;;;;;6.25;6.25;;;;;22.24;50.97;101527.78;6349100;22;45447;-88
2022/05/16 09:55:46;;;;;;;;;6.50;6.50;;;;;22.24;51.18;101520.59;6387740;22;45305;-93
2022/05/16 09:58:22;;;;;;;;;9.25;8.50;;;;;22.26;51.16;101517.84;6384599;22;44799;-90
2022/05/16 10:00:58;;;;;;;;;10.33;8.67;;;;;22.30;50.87;101530.22;6377263;22;46770;-94
2022/05/16 10:03:47;;;;;;;;;8.00;7.50;;;;;22.42;50.75;101529.69;6345787;22;45104;-91
2022/05/16 10:06:45;;;;;;;;;;;;;;;;;;;;;
2022/05/16 10:09:26;;;;;;;;;8.25;8.00;;;;;22.73;50.07;101531.13;6373885;22;72628;-91
2022/05/16 10:12:16;;;;;;;;;;;;;;;;;;;;;
2022/05/16 10:14:46;;;;;;;;;7.25;7.25;;;;;23.03;49.24;101533.47;6371894;22;71153;-90
2022/05/16 10:17:23;;;;;;;;;8.33;8.33;;;;;23.06;49.13;101530.66;6373465;22;45422;-89
2022/05/16 10:19:58;;;;;;;;;10.00;9.50;;;;;23.11;49.08;101534.88;6369374;22;45359;-89
2022/05/16 11:12:27;;;;;;;;;5.00;4.00;;;;;25.07;43.48;101529.22;6231373;22;45531;-84
2022/05/16 11:14:59;;;;;;;;;4.00;4.00;;;;;25.19;42.77;101525.06;6346268;22;44877;-83
2022/05/16 11:17:45;;;;;;;;;4.00;4.00;;;;;25.25;42.33;101522.91;6313868;22;45432;-83
2022/05/16 11:20:29;;;;;;;;;5.00;5.00;;;;;25.39;42.50;101534.78;6340878;22;47974;-86
2022/05/16 13:47:32;;;;;;;;;;;;;;;;;;;;;
2022/05/16 13:50:03;;;;;;;;;3.00;3.00;;;;;28.20;34.85;101485.75;6331406;22;45329;-84
2022/05/16 13:53:15;;;;;;;;;;;;;;;;;;;;;
2022/05/16 13:55:38;;;;;;;;;1.00;1.00;;;;;28.30;34.03;101493.16;6333126;22;45374;-84
2022/05/16 14:01:51;;;;;;;;;;;;;;;;;;;;;
2022/05/16 14:04:21;;;;;;;;;1.00;1.00;;;;;28.11;33.99;101479.97;6249598;22;68665;-85
2022/05/16 14:06:50;;;;;;;;;3.00;2.00;;;;;28.28;33.78;101488.81;6308864;22;45496;-85
2022/05/16 14:09:33;;;;;;;;;1.00;1.00;;;;;28.48;33.27;101490.22;6309269;22;47197;-83
2022/05/16 14:11:59;;;;;;;;;1.00;1.00;;;;;28.54;33.52;101484.38;6308166;22;45245;-82
2022/05/16 14:14:29;;;;;;;;;1.00;1.00;;;;;28.60;32.66;101492.09;6338064;22;45515;-80
2022/05/16 14:16:58;;;;;;;;;2.00;1.00;;;;;28.69;33.07;101494.19;6310198;22;45613;-80
2022/05/16 14:19:43;;;;;;;;;2.00;2.00;;;;;28.80;31.91;101477.19;6310116;22;48154;-81
2022/05/16 14:22:31;;;;;;;;;1.00;1.00;;;;;28.94;31.98;101489.78;6310835;22;45209;-84
2022/05/16 14:25:04;;;;;;;;;2.00;2.00;;;;;29.09;31.92;101487.91;6310710;22;45246;-81
2022/05/16 14:27:39;;;;;;;;;2.00;2.00;;;;;29.22;31.85;101489.66;6340042;22;45269;-84
2022/05/16 14:30:21;;;;;;;;;1.33;1.00;;;;;29.38;31.10;101491.28;6339175;22;45178;-82
2022/05/16 14:32:58;;;;;;;;;0.67;0.67;;;;;29.29;31.13;101490.06;6339643;22;45345;-82
2022/05/16 14:35:27;;;;;;;;;0.00;0.00;;;;;29.13;31.86;101494.84;6339537;22;45287;-83
2022/05/16 14:38:05;;;;;;;;;1.00;1.00;;;;;28.92;31.20;101492.63;6350543;22;45169;-86
2022/05/16 14:40:40;;;;;;;;;2.00;1.00;;;;;28.79;31.67;101483.59;6315317;22;46947;-85
2022/05/16 14:43:28;;;;;;;;;1.00;1.00;;;;;28.71;31.64;101483.22;6311968;22;45717;-85
2022/05/16 14:46:57;;;;;;;;;;;;;;;;;;;;;
2022/05/16 14:49:42;;;;;;;;;3.67;0.00;;;;;29.05;30.81;101481.81;6342199;22;72690;-89
2022/05/16 14:59:37;;;;;;;;;1.00;1.00;;;;;28.89;29.95;101487.41;6180715;23;46195;-92
2022/05/16 15:12:16;;;;;;;;;1.67;0.67;;;;;28.65;30.41;101470.97;6210863;22;45395;-86
2022/05/16 15:18:48;;;;;;;;;;;;;;;;;;;;;
2022/05/16 15:27:59;;;;;;;;;1.00;1.00;;;;;29.62;29.61;101475.09;6249545;22;45574;-84
2022/05/16 15:30:26;;;;;;;;;1.00;1.00;;;;;29.67;29.29;101473.81;6309903;22;48179;-81
2022/05/16 15:32:52;;;;;;;;;0.33;0.33;;;;;29.76;29.14;101471.38;6340770;22;45269;-83
2022/05/16 15:38:49;;;;;;;;;1.00;1.00;;;;;29.76;29.06;101469.53;6330898;22;46159;-86
2022/05/16 15:42:08;;;;;;;;;;;;;;;;;;;;;
2022/05/16 15:51:22;;;;;;;;;1.00;1.00;;;;;29.72;29.03;101450.88;6184620;22;44642;-81
2022/05/16 16:01:23;;;;;;;;;0.67;0.67;;;;;29.74;29.27;101444.34;6172252;22;46748;-82
2022/05/16 17:34:59;;;;;;;;;0.00;0.00;;;;;32.97;23.21;101445.81;6303461;22;47427;-82
2022/05/16 17:46:09;;;;;;;;;0.33;0.33;;;;;30.58;25.18;101452.59;6339664;22;45380;-84
2022/05/16 17:55:24;;;;;;;;;1.00;1.00;;;;;29.27;27.11;101464.91;6308081;22;45442;-82
2022/05/16 17:58:31;;;;;;;;;2.00;1.00;;;;;29.02;27.52;101461.16;6320706;22;45330;-82
2022/05/16 18:01:14;;;;;;;;;0.00;0.00;;;;;28.80;27.55;101455.53;6237379;22;45446;-83
2022/05/16 18:04:29;;;;;;;;;0.67;0.67;;;;;28.63;28.12;101464.81;6247602;22;46877;-83
2022/05/16 18:08:03;;;;;;;;;;;;;;;;;;;;;
2022/05/16 18:13:23;;;;;;;;;1.00;0.00;;;;;28.05;28.95;101458.72;6314395;22;45486;-82
2022/05/16 18:22:43;;;;;;;;;;;;;;;;;;;;;
2022/05/16 18:25:10;;;;;;;;;1.00;1.00;;;;;27.47;30.30;101471.41;6337597;22;72010;-81
2022/05/16 18:27:59;;;;;;;;;2.00;2.00;;;;;27.35;30.51;101474.06;6337220;22;47246;-82
2022/05/16 18:30:39;;;;;;;;;1.00;1.00;;;;;27.25;30.37;101477.31;6339612;22;45364;-83
2022/05/16 18:33:40;;;;;;;;;1.67;0.67;;;;;27.20;31.21;101482.13;6312476;22;45251;-83
2022/05/16 18:36:56;;;;;;;;;1.00;1.00;;;;;27.18;30.81;101480.50;6311193;22;45459;-86
2022/05/16 18:51:36;;;;;;;;;0.33;0.33;;;;;26.89;31.58;101482.25;6306581;22;45680;-82
2022/05/16 18:54:20;;;;;;;;;1.00;0.00;;;;;26.79;31.91;101485.50;6279658;22;45520;-84
2022/05/16 18:56:52;;;;;;;;;1.00;0.67;;;;;26.73;31.47;101483.19;6280254;22;45385;-84
2022/05/16 18:59:21;;;;;;;;;2.00;1.00;;;;;26.67;31.99;101483.53;6278004;22;45648;-83
2022/05/16 19:01:47;;;;;;;;;2.00;2.00;;;;;26.63;32.05;101490.09;6278960;22;47279;-79
2022/05/16 19:15:00;;;;;;;;;1.33;1.33;;;;;26.27;32.36;101493.94;6255399;22;45494;-91
2022/05/16 19:17:34;;;;;;;;;2.00;2.00;;;;;26.18;32.33;101492.63;6248803;22;45758;-91
2022/05/16 19:20:25;;;;;;;;;2.00;2.00;;;;;26.15;32.36;101498.22;6300826;22;45434;-92
2022/05/16 19:23:11;;;;;;;;;1.00;1.00;;;;;26.09;32.89;101500.38;6287482;22;45553;-92
2022/05/16 19:25:49;;;;;;;;;1.00;1.00;;;;;26.02;32.86;101504.41;6286728;22;46979;-91
2022/05/16 19:38:57;;;;;;;;;;;;;;;;;;;;;
2022/05/16 20:13:19;;;;;;;;;;;;;;;;;;;;;
2022/05/16 20:31:16;;;;;;;;;;;;;;;;;;;;;
2022/05/16 20:37:51;;;;;;;;;;;;;;;;;;;;;
2022/05/16 20:52:25;;;;;;;;;51.50;41.00;;;;;24.34;37.24;101531.94;5837721;24;45544;-88
2022/05/16 21:18:45;;;;;;;;;8.50;7.25;;;;;23.85;38.78;101544.19;5930616;24;45647;-90
2022/05/16 21:21:10;;;;;;;;;8.25;7.25;;;;;23.81;39.26;101540.75;6029445;23;44800;-89